Time;durP1;ratioP1;P1;durP2;ratioP2;P2;SDS_P1;SDS_P2;PMS_P1;PMS_P2;Temp;Humidity;BMP_temperature;BMP_pressure;BME280_temperature;BME280_humidity;BME280_pressure;Samples;Min_cycle;Max_cycle;Signal;HPM_P1;HPM_P2
2023/09/21 00:01:28;;;;;;;1.88;1.27;;;;;;;19.43;63.69;95827.44;6282884;22;20298;-81
2023/09/21 00:04:01;;;;;;;2.38;1.88;;;;;;;19.40;63.91;95820.81;6284658;22;20046;-79
2023/09/21 00:06:31;;;;;;;2.33;1.92;;;;;;;19.38;63.92;95816.84;6258173;22;20019;-78
2023/09/21 00:09:02;;;;;;;5.68;2.00;;;;;;;19.32;64.12;95810.72;6285646;22;20015;-78
2023/09/21 00:11:32;;;;;;;3.10;1.65;;;;;;;19.26;64.25;95807.28;6282788;22;20027;-78
2023/09/21 00:14:01;;;;;;;2.88;1.50;;;;;;;19.19;64.29;95811.97;6282622;22;20465;-78
2023/09/21 00:16:34;;;;;;;1.73;1.27;;;;;;;19.13;64.56;95805.06;6282430;22;20030;-79
2023/09/21 00:19:10;;;;;;;2.70;1.88;;;;;;;19.08;64.76;95797.09;6284133;22;20026;-79
2023/09/21 00:21:40;;;;;;;2.97;1.90;;;;;;;19.05;64.75;95794.97;6282934;22;20012;-78
2023/09/21 00:24:16;;;;;;;4.00;1.60;;;;;;;19.02;64.81;95793.66;6282878;22;20042;-79
2023/09/21 00:26:49;;;;;;;4.35;1.70;;;;;;;19.01;64.89;95788.59;6284106;22;20450;-79
2023/09/21 00:29:18;;;;;;;2.35;1.85;;;;;;;18.99;64.72;95788.06;6296807;22;20019;-78
2023/09/21 00:31:49;;;;;;;3.08;2.00;;;;;;;18.96;65.01;95783.25;6298925;22;20046;-79
2023/09/21 00:34:20;;;;;;;3.65;2.00;;;;;;;18.94;64.91;95792.25;6289101;22;20027;-79
2023/09/21 00:36:50;;;;;;;3.50;2.00;;;;;;;18.92;65.05;95786.44;6282338;22;20673;-79
2023/09/21 00:39:22;;;;;;;2.00;1.90;;;;;;;18.90;64.78;95785.88;6282737;22;20073;-78
2023/09/21 00:41:51;;;;;;;2.33;1.92;;;;;;;18.89;64.82;95784.31;6282639;22;20069;-79
2023/09/21 00:44:24;;;;;;;2.72;1.60;;;;;;;18.88;64.76;95787.19;6283736;22;20043;-78
2023/09/21 00:46:55;;;;;;;2.50;1.55;;;;;;;18.88;64.89;95785.34;6283013;22;20368;-79
2023/09/21 00:49:31;;;;;;;2.83;2.10;;;;;;;18.88;65.01;95787.97;6283002;22;20027;-78
2023/09/21 00:52:01;;;;;;;3.97;1.50;;;;;;;18.87;64.80;95796.16;6282817;22;20074;-79
2023/09/21 00:54:31;;;;;;;2.53;2.08;;;;;;;18.88;64.70;95784.56;6283020;22;20327;-79
2023/09/21 00:57:04;;;;;;;4.68;1.65;;;;;;;18.85;64.70;95780.56;6297494;22;20070;-78
2023/09/21 00:59:39;;;;;;;2.10;1.65;;;;;;;18.84;64.82;95786.09;6286592;22;20016;-79
2023/09/21 01:02:12;;;;;;;2.80;1.70;;;;;;;18.83;64.83;95784.53;6286509;22;20098;-79
2023/09/21 01:04:46;;;;;;;1.85;1.60;;;;;;;18.84;64.76;95784.25;6261809;22;20046;-79
2023/09/21 01:07:22;;;;;;;4.03;2.15;;;;;;;18.82;64.55;95780.28;6284952;22;20024;-79
2023/09/21 01:09:51;;;;;;;3.05;1.63;;;;;;;18.80;64.66;95785.81;6282850;22;20031;-79
2023/09/21 01:12:22;;;;;;;3.72;2.08;;;;;;;18.74;64.52;95779.69;6281949;22;20023;-78
2023/09/21 01:15:04;;;;;;;4.35;2.28;;;;;;;18.70;64.73;95778.59;6283031;22;20058;-79
2023/09/21 01:17:34;;;;;;;2.70;1.98;;;;;;;18.61;64.59;95771.41;6282579;22;20019;-78
2023/09/21 01:20:13;;;;;;;3.05;1.83;;;;;;;18.51;65.19;95775.53;6282519;22;20028;-79
2023/09/21 01:22:46;;;;;;;2.92;1.60;;;;;;;18.45;65.46;95771.25;6297575;22;20012;-78
2023/09/21 01:25:20;;;;;;;2.95;2.20;;;;;;;18.39;65.68;95767.00;6254511;22;20015;-79
2023/09/21 01:27:51;;;;;;;4.82;1.73;;;;;;;18.33;65.37;95762.72;6282552;22;20024;-79
2023/09/21 01:30:22;;;;;;;6.40;2.33;;;;;;;18.27;65.62;95769.00;6282256;22;20412;-79
2023/09/21 01:32:52;;;;;;;2.63;2.15;;;;;;;18.20;65.92;95763.91;6285232;22;20020;-79
2023/09/21 01:35:21;;;;;;;3.70;1.80;;;;;;;18.14;66.22;95759.63;6284736;22;20069;-79
2023/09/21 01:37:51;;;;;;;2.38;1.85;;;;;;;18.10;66.57;95754.06;6284059;22;20028;-79
2023/09/21 01:40:21;;;;;;;2.80;2.42;;;;;;;18.07;66.96;95753.75;6283301;22;20024;-79
2023/09/21 01:42:51;;;;;;;6.85;2.13;;;;;;;18.04;66.97;95749.78;6283649;22;20103;-79
2023/09/21 01:45:20;;;;;;;3.03;2.28;;;;;;;18.02;67.18;95757.16;6281607;22;20023;-80
2023/09/21 01:47:50;;;;;;;6.47;2.22;;;;;;;17.99;67.41;95756.84;6282952;22;20020;-79
2023/09/21 01:50:21;;;;;;;4.88;2.30;;;;;;;17.94;67.66;95754.97;6281925;22;20019;-79
2023/09/21 01:52:50;;;;;;;3.67;2.50;;;;;;;17.92;67.81;95757.06;6289809;22;20073;-79
2023/09/21 01:55:21;;;;;;;6.25;2.60;;;;;;;17.91;68.05;95761.53;6302932;22;20023;-79
2023/09/21 01:57:50;;;;;;;5.72;2.55;;;;;;;17.89;68.14;95752.28;6293459;22;20019;-79
2023/09/21 02:00:26;;;;;;;5.47;2.85;;;;;;;17.90;67.85;95751.22;6281617;22;20484;-79
2023/09/21 02:02:56;;;;;;;3.85;2.17;;;;;;;17.87;67.64;95746.44;6281306;22;20090;-79
2023/09/21 02:05:29;;;;;;;2.50;2.20;;;;;;;17.86;67.85;95742.22;6281555;22;20027;-79
2023/09/21 02:07:58;;;;;;;5.57;2.65;;;;;;;17.88;67.83;95745.41;6282876;22;20020;-79
2023/09/21 02:10:29;;;;;;;4.00;2.28;;;;;;;17.90;68.23;95743.31;6283511;22;20062;-79
2023/09/21 02:13:00;;;;;;;2.10;1.90;;;;;;;17.94;67.79;95738.34;6282080;22;20035;-81
2023/09/21 02:15:31;;;;;;;5.03;2.25;;;;;;;17.98;67.87;95745.50;6282079;22;20023;-79
2023/09/21 02:18:02;;;;;;;4.05;2.25;;;;;;;18.02;67.69;95736.03;6282952;22;20019;-80
2023/09/21 02:20:32;;;;;;;7.63;2.33;;;;;;;18.02;67.62;95741.31;6282985;22;20042;-78
2023/09/21 02:23:03;;;;;;;4.45;2.40;;;;;;;18.02;67.94;95736.03;6280774;22;20012;-79
2023/09/21 02:25:38;;;;;;;7.13;2.40;;;;;;;18.00;67.92;95732.84;6281061;22;20085;-79
2023/09/21 02:28:10;;;;;;;5.88;2.70;;;;;;;17.96;67.93;95729.13;6280454;22;20016;-79
2023/09/21 02:30:42;;;;;;;9.93;2.90;;;;;;;17.91;68.21;95721.16;6282096;22;20023;-79
2023/09/21 02:33:12;;;;;;;4.72;2.67;;;;;;;17.86;68.25;95718.47;6282381;22;20024;-79
2023/09/21 02:35:41;;;;;;;4.60;2.20;;;;;;;17.80;68.50;95722.88;6282599;22;20022;-79
2023/09/21 02:38:11;;;;;;;5.60;2.72;;;;;;;17.76;68.68;95727.06;6282834;22;20020;-79
2023/09/21 02:40:45;;;;;;;6.10;2.70;;;;;;;17.73;69.00;95716.19;6281648;22;20388;-79
2023/09/21 02:43:15;;;;;;;5.63;2.70;;;;;;;17.70;69.25;95713.00;6281353;22;20016;-79
2023/09/21 02:45:44;;;;;;;7.57;2.75;;;;;;;17.67;69.54;95713.50;6281179;22;20400;-79
2023/09/21 02:48:15;;;;;;;6.88;2.97;;;;;;;17.67;69.61;95696.91;6281519;22;20026;-79
2023/09/21 02:50:48;;;;;;;3.38;2.42;;;;;;;17.70;69.74;95702.47;6280404;22;20023;-79
2023/09/21 02:53:20;;;;;;;6.75;2.85;;;;;;;17.73;69.48;95695.88;6279758;22;20023;-79
2023/09/21 02:55:52;;;;;;;6.60;2.92;;;;;;;17.76;69.60;95694.63;6280446;22;20020;-79
2023/09/21 03:26:52;;;;;;;5.07;3.03;;;;;;;17.76;69.29;95673.50;6306509;22;20024;-79
2023/09/21 03:30:31;;;;;;;10.25;3.45;;;;;;;17.73;69.22;95674.00;6299859;22;20012;-80
2023/09/21 03:40:32;;;;;;;12.27;3.33;;;;;;;17.66;69.71;95658.38;6305688;22;20063;-78
2023/09/21 03:46:39;;;;;;;7.05;2.92;;;;;;;17.64;69.46;95655.97;6284571;22;20049;-80
2023/09/21 04:22:32;;;;;;;5.95;4.28;;;;;;;17.30;70.80;95616.63;6303129;22;20014;-80
2023/09/21 04:26:14;;;;;;;5.53;3.72;;;;;;;17.28;70.97;95620.56;6305502;22;20087;-78
2023/09/21 04:29:19;;;;;;;5.72;3.28;;;;;;;17.30;70.91;95623.75;6304815;22;20006;-78
2023/09/21 04:35:30;;;;;;;6.75;3.40;;;;;;;17.32;70.36;95615.56;6289789;22;20016;-79
2023/09/21 04:37:58;;;;;;;6.82;3.45;;;;;;;17.31;70.66;95612.16;6283012;22;20020;-80
2023/09/21 04:40:27;;;;;;;6.30;3.38;;;;;;;17.30;70.71;95608.72;6281706;22;20023;-78
2023/09/21 04:42:56;;;;;;;8.07;3.60;;;;;;;17.34;70.78;95610.84;6280881;22;20024;-77
2023/09/21 04:45:26;;;;;;;7.82;3.75;;;;;;;17.36;70.77;95614.03;6279923;22;20019;-77
2023/09/21 04:48:00;;;;;;;10.50;4.05;;;;;;;17.37;70.71;95613.00;6280397;22;20050;-77
2023/09/21 04:50:28;;;;;;;6.07;3.85;;;;;;;17.38;70.67;95614.59;6284604;22;20027;-77
2023/09/21 04:52:56;;;;;;;8.15;4.00;;;;;;;17.36;70.47;95614.84;6300079;22;20016;-77
2023/09/21 04:55:24;;;;;;;4.70;3.72;;;;;;;17.34;70.83;95613.50;6295808;22;20026;-77
2023/09/21 04:57:52;;;;;;;8.10;3.97;;;;;;;17.32;70.70;95615.56;6280356;22;20500;-77
2023/09/21 05:00:19;;;;;;;10.10;4.10;;;;;;;17.27;70.52;95608.41;6281736;22;20016;-78
2023/09/21 05:02:48;;;;;;;7.53;4.40;;;;;;;17.24;70.88;95608.94;6280093;22;20531;-78
2023/09/21 05:05:17;;;;;;;6.28;3.80;;;;;;;17.23;71.08;95618.69;6280230;22;20024;-80
2023/09/21 05:07:44;;;;;;;7.88;4.60;;;;;;;17.24;71.07;95609.72;6280183;22;20484;-78
2023/09/21 05:10:12;;;;;;;7.80;5.00;;;;;;;17.25;70.83;95611.31;6279922;22;20023;-77
2023/09/21 05:12:41;;;;;;;6.22;4.63;;;;;;;17.23;70.81;95618.69;6280797;22;20038;-78
2023/09/21 05:15:14;;;;;;;10.75;4.78;;;;;;;17.24;71.10;95603.66;6281699;22;20405;-78
2023/09/21 05:17:43;;;;;;;8.48;4.45;;;;;;;17.22;70.90;95601.25;6281402;22;20023;-78
2023/09/21 05:20:12;;;;;;;9.07;3.67;;;;;;;17.18;70.97;95594.88;6282661;22;20076;-78
2023/09/21 05:22:40;;;;;;;6.20;4.13;;;;;;;17.14;71.07;95598.28;6290219;22;20065;-78
2023/09/21 05:25:09;;;;;;;4.70;3.30;;;;;;;17.06;71.29;95599.53;6287513;22;20094;-77
2023/09/21 05:27:38;;;;;;;5.63;3.63;;;;;;;17.00;71.31;95597.88;6278518;22;20034;-78
2023/09/21 05:30:08;;;;;;;7.03;3.80;;;;;;;16.94;71.39;95609.38;6288884;22;20046;-78
2023/09/21 05:32:37;;;;;;;6.68;3.90;;;;;;;16.87;71.76;95605.09;6289324;22;20023;-78
2023/09/21 05:35:07;;;;;;;6.47;4.30;;;;;;;16.82;71.59;95612.94;6279467;22;20027;-78
2023/09/21 05:37:36;;;;;;;7.38;3.92;;;;;;;16.80;72.05;95612.38;6250081;22;20505;-78
2023/09/21 05:40:06;;;;;;;6.70;4.28;;;;;;;16.82;71.89;95618.22;6276120;22;20027;-77
2023/09/21 05:42:35;;;;;;;9.63;4.90;;;;;;;16.84;71.80;95613.50;6279825;22;20472;-77
2023/09/21 05:45:04;;;;;;;6.97;4.15;;;;;;;16.87;71.72;95613.00;6274877;22;20016;-78
2023/09/21 05:47:32;;;;;;;7.10;5.10;;;;;;;16.89;71.55;95604.84;6290038;22;20026;-78
2023/09/21 05:50:00;;;;;;;7.75;4.70;;;;;;;16.92;71.40;95601.72;6286156;22;20515;-78
2023/09/21 05:52:30;;;;;;;8.75;4.63;;;;;;;16.92;71.32;95611.47;6287089;22;20032;-78
2023/09/21 05:54:59;;;;;;;8.55;3.75;;;;;;;16.91;71.56;95610.69;6280951;22;20024;-78
2023/09/21 05:57:27;;;;;;;6.90;3.03;;;;;;;16.92;71.33;95606.97;6289896;22;20012;-78
2023/09/21 05:59:55;;;;;;;3.63;2.90;;;;;;;16.97;70.97;95608.91;6302507;22;20023;-78
2023/09/21 06:02:23;;;;;;;5.63;2.80;;;;;;;16.98;71.01;95603.38;6302166;22;20011;-77
2023/09/21 06:04:51;;;;;;;7.00;2.70;;;;;;;17.03;71.17;95598.19;6290922;22;20372;-78
2023/09/21 06:07:19;;;;;;;3.83;2.65;;;;;;;17.07;70.74;95595.81;6282714;22;20567;-76
2023/09/21 06:09:48;;;;;;;8.45;2.78;;;;;;;17.07;70.43;95598.47;6282774;22;20027;-78
2023/09/21 06:12:17;;;;;;;3.40;2.47;;;;;;;17.08;70.32;95595.59;6282336;22;20024;-78
2023/09/21 06:14:44;;;;;;;2.85;2.40;;;;;;;17.10;70.29;95587.44;6285589;22;20016;-79
2023/09/21 06:17:13;;;;;;;5.70;2.55;;;;;;;17.12;70.26;95590.63;6287290;22;20031;-78
2023/09/21 06:19:42;;;;;;;3.20;2.30;;;;;;;17.11;70.29;95589.03;6275855;22;20012;-78
2023/09/21 06:22:09;;;;;;;5.90;2.47;;;;;;;17.14;70.12;95587.72;6276342;22;20019;-80
2023/09/21 06:24:39;;;;;;;2.97;2.47;;;;;;;17.17;70.37;95588.03;6277832;22;20016;-78
2023/09/21 06:27:07;;;;;;;7.22;2.78;;;;;;;17.25;70.30;95581.50;6277404;22;20024;-78
2023/09/21 06:29:36;;;;;;;6.47;2.63;;;;;;;17.36;69.63;95580.59;6277424;22;20349;-78
2023/09/21 06:32:07;;;;;;;3.58;2.25;;;;;;;17.47;69.07;95578.81;6279159;22;20043;-78
2023/09/21 06:34:41;;;;;;;3.28;2.38;;;;;;;17.59;69.35;95573.41;6279272;22;20055;-79
2023/09/21 06:37:09;;;;;;;5.15;2.40;;;;;;;17.73;68.91;95573.78;6278998;22;20036;-78
2023/09/21 06:39:37;;;;;;;3.47;2.30;;;;;;;17.87;68.35;95569.69;6280395;22;20020;-76
2023/09/21 06:42:05;;;;;;;8.80;3.35;;;;;;;17.99;67.87;95572.94;6279420;22;20046;-78
2023/09/21 06:44:33;;;;;;;2.72;1.85;;;;;;;18.08;67.30;95571.44;6278983;22;20492;-75
2023/09/21 06:47:03;;;;;;;3.13;1.95;;;;;;;18.19;67.33;95566.19;6280872;22;20416;-76
2023/09/21 06:49:30;;;;;;;3.65;2.75;;;;;;;18.33;66.60;95570.00;6278850;22;20024;-76
2023/09/21 06:51:59;;;;;;;7.00;3.47;;;;;;;18.49;66.12;95566.38;6278515;22;20048;-76
2023/09/21 06:54:28;;;;;;;4.57;2.72;;;;;;;18.68;65.89;95560.66;6278940;22;20038;-76
2023/09/21 06:57:03;;;;;;;5.43;2.60;;;;;;;18.92;65.66;95553.88;6278867;22;20357;-76
2023/09/21 06:59:34;;;;;;;4.57;2.63;;;;;;;19.11;64.66;95551.56;6278795;22;20024;-76
2023/09/21 07:02:05;;;;;;;2.90;2.20;;;;;;;19.28;64.40;95555.81;6294649;22;20007;-78
2023/09/21 07:04:34;;;;;;;2.47;2.15;;;;;;;19.43;63.93;95547.91;6295147;22;20026;-78
2023/09/21 07:07:05;;;;;;;3.53;1.83;;;;;;;19.63;64.00;95554.25;6288801;22;20503;-78
2023/09/21 07:09:35;;;;;;;2.97;2.60;;;;;;;19.81;63.01;95550.31;6286441;22;20434;-77
2023/09/21 07:12:04;;;;;;;3.08;2.22;;;;;;;19.94;62.65;95545.28;6290662;22;20510;-78
2023/09/21 07:14:35;;;;;;;3.92;2.50;;;;;;;20.07;61.76;95540.47;6290223;22;20024;-78
2023/09/21 07:17:05;;;;;;;4.53;1.88;;;;;;;20.22;61.78;95543.09;6287054;22;20457;-78
2023/09/21 07:19:34;;;;;;;3.38;2.15;;;;;;;20.43;61.16;95545.72;6284830;22;20479;-78
2023/09/21 07:22:03;;;;;;;2.92;1.88;;;;;;;20.67;60.57;95548.56;6284987;22;20024;-78
2023/09/21 07:24:31;;;;;;;2.58;1.88;;;;;;;20.94;59.95;95551.59;6283343;22;20020;-78
2023/09/21 07:27:00;;;;;;;2.58;1.73;;;;;;;21.22;59.34;95554.63;6293977;22;20027;-78
2023/09/21 07:29:30;;;;;;;4.43;2.13;;;;;;;21.50;58.64;95555.03;6296390;22;20019;-78
2023/09/21 07:31:59;;;;;;;3.00;2.00;;;;;;;;;;6297877;22;20483;-78
2023/09/21 07:34:27;;;;;;;3.63;1.65;;;;;;;21.89;57.43;95544.34;6289855;22;20030;-78
2023/09/21 07:36:56;;;;;;;2.55;1.90;;;;;;;22.01;56.34;95554.59;6287959;22;20073;-78
2023/09/21 07:39:24;;;;;;;3.17;1.98;;;;;;;22.11;55.90;95540.44;6288129;22;20020;-78
2023/09/21 07:41:53;;;;;;;5.65;2.03;;;;;;;22.15;55.63;95544.91;6283680;22;20019;-78
2023/09/21 07:44:22;;;;;;;4.22;1.95;;;;;;;22.21;55.96;95548.28;6289428;22;20023;-78
2023/09/21 07:46:51;;;;;;;3.30;1.70;;;;;;;22.26;55.36;95550.94;6285312;22;20019;-78
2023/09/21 07:49:19;;;;;;;6.28;1.95;;;;;;;22.43;55.65;95542.50;6299972;22;20023;-78
2023/09/21 07:51:47;;;;;;;5.05;2.08;;;;;;;22.71;55.72;95540.06;6304952;22;20023;-77
2023/09/21 07:54:16;;;;;;;4.68;2.08;;;;;;;23.00;54.57;95540.78;6304140;22;20038;-76
2023/09/21 07:56:45;;;;;;;4.90;2.20;;;;;;;23.30;53.58;95537.97;6304427;22;20016;-77
2023/09/21 07:59:13;;;;;;;3.40;2.08;;;;;;;23.57;53.63;95539.94;6302043;22;20042;-78
2023/09/21 08:01:40;;;;;;;4.88;1.90;;;;;;;23.84;52.93;95537.41;6300725;22;20008;-78
2023/09/21 08:04:08;;;;;;;5.13;1.90;;;;;;;24.15;52.13;95549.41;6300170;22;19999;-78
2023/09/21 08:06:36;;;;;;;5.57;2.13;;;;;;;24.41;51.56;95547.84;6303277;22;20043;-78
2023/09/21 08:09:04;;;;;;;7.65;1.80;;;;;;;24.67;51.21;95545.53;6300673;22;20102;-78
2023/09/21 08:11:53;;;;;;;7.53;2.83;;;;;;;24.93;49.30;95552.22;6296760;22;20063;-78
2023/09/21 08:14:21;;;;;;;8.45;3.85;;;;;;;25.11;49.17;95551.28;6292024;22;20030;-78
2023/09/21 08:16:49;;;;;;;11.60;4.18;;;;;;;25.33;48.19;95547.91;6293821;22;20019;-78
2023/09/21 08:19:16;;;;;;;9.75;4.00;;;;;;;25.57;47.70;95533.47;6292251;22;20031;-79
2023/09/21 08:21:44;;;;;;;9.57;3.55;;;;;;;25.84;47.13;95530.66;6285667;22;20032;-78
2023/09/21 08:24:12;;;;;;;10.32;4.63;;;;;;;26.12;45.59;95527.84;6284201;22;20102;-78
2023/09/21 08:26:41;;;;;;;5.63;3.58;;;;;;;26.36;44.58;95516.00;6289325;22;20024;-78
2023/09/21 08:29:11;;;;;;;10.93;3.70;;;;;;;26.59;43.34;95533.59;6288513;22;20457;-78
2023/09/21 08:31:40;;;;;;;9.07;3.10;;;;;;;26.86;43.52;95529.09;6298212;22;20444;-78
2023/09/21 08:34:07;;;;;;;7.82;3.03;;;;;;;27.13;42.37;95525.31;6287969;22;20103;-78
2023/09/21 08:36:36;;;;;;;8.93;2.70;;;;;;;27.42;42.16;95523.94;6290139;22;20039;-78
2023/09/21 08:39:05;;;;;;;8.68;3.15;;;;;;;27.72;41.20;95522.19;6282882;22;20019;-78
2023/09/21 08:41:35;;;;;;;5.22;2.67;;;;;;;27.98;40.56;95519.47;6280860;22;20016;-80
2023/09/21 08:44:04;;;;;;;5.47;2.92;;;;;;;28.21;40.60;95517.38;6280182;22;20361;-78
2023/09/21 08:46:34;;;;;;;4.00;2.70;;;;;;;28.40;39.89;95513.50;6279993;22;20012;-80
2023/09/21 08:49:03;;;;;;;4.93;2.83;;;;;;;28.56;39.97;95511.88;6281350;22;20098;-79
2023/09/21 08:51:32;;;;;;;5.00;2.67;;;;;;;28.76;39.36;95516.50;6281264;22;20445;-79
2023/09/21 08:54:01;;;;;;;2.97;2.05;;;;;;;28.99;38.64;95515.41;6280965;22;20027;-81
2023/09/21 08:56:32;;;;;;;4.68;2.05;;;;;;;29.30;36.98;95518.53;6281029;22;20020;-80
2023/09/21 08:59:03;;;;;;;5.35;2.22;;;;;;;29.76;36.37;95515.94;6281635;22;20400;-81
2023/09/21 09:01:31;;;;;;;6.53;1.98;;;;;;;30.47;35.30;95514.06;6279505;22;20487;-81
2023/09/21 09:04:00;;;;;;;4.15;1.95;;;;;;;31.82;33.88;95511.09;6280110;22;20027;-81
2023/09/21 09:06:29;;;;;;;4.03;2.80;;;;;;;33.63;29.99;95501.34;6280376;22;20039;-81
2023/09/21 09:08:57;;;;;;;4.32;2.10;;;;;;;35.28;27.61;95502.06;6279913;22;20024;-80
2023/09/21 09:11:35;;;;;;;2.40;1.42;;;;;;;36.64;25.02;95499.19;6280762;22;20066;-80
2023/09/21 09:14:04;;;;;;;2.50;1.55;;;;;;;37.44;23.57;95490.31;6281679;22;20015;-79
2023/09/21 09:16:33;;;;;;;1.20;1.10;;;;;;;38.08;22.20;95484.28;6282981;22;20024;-80
2023/09/21 09:19:05;;;;;;;1.88;1.17;;;;;;;38.60;20.41;95483.91;6281694;22;20512;-81
2023/09/21 09:21:33;;;;;;;3.00;1.05;;;;;;;39.00;20.94;95485.38;6281392;22;20024;-80
2023/09/21 09:24:02;;;;;;;2.10;1.45;;;;;;;39.08;20.47;95483.44;6279364;22;20019;-80
2023/09/21 09:26:30;;;;;;;2.42;1.50;;;;;;;39.49;20.73;95477.41;6279685;22;20108;-80
2023/09/21 09:29:05;;;;;;;2.88;1.50;;;;;;;39.88;21.01;95482.69;6279975;22;20050;-80
2023/09/21 09:31:33;;;;;;;2.28;1.45;;;;;;;39.82;21.11;95469.81;6279551;22;20015;-79
2023/09/21 09:34:04;;;;;;;5.90;1.30;;;;;;;39.76;20.12;95462.06;6279277;22;20022;-80
2023/09/21 09:36:33;;;;;;;1.25;0.95;;;;;;;39.67;20.07;95458.25;6280847;22;20031;-81
2023/09/21 09:39:01;;;;;;;2.33;1.20;;;;;;;39.87;19.90;95450.34;6277554;22;20054;-80
2023/09/21 09:41:30;;;;;;;1.90;1.17;;;;;;;40.19;20.18;95458.25;6278577;22;20038;-80
2023/09/21 09:43:59;;;;;;;1.20;0.95;;;;;;;40.60;19.59;95459.50;6280009;22;20049;-80
2023/09/21 09:46:27;;;;;;;1.33;1.05;;;;;;;40.23;19.78;95456.28;6279357;22;20114;-79
2023/09/21 09:49:01;;;;;;;3.20;1.55;;;;;;;39.82;19.85;95453.44;6279964;22;20027;-81
2023/09/21 09:51:38;;;;;;;1.33;1.10;;;;;;;39.48;20.09;95454.81;6278350;22;20028;-79
2023/09/21 09:54:08;;;;;;;4.70;1.23;;;;;;;39.90;20.01;95449.53;6278679;22;20353;-80
2023/09/21 09:56:41;;;;;;;1.95;1.35;;;;;;;40.33;19.77;95465.59;6279381;22;20099;-80
2023/09/21 09:59:11;;;;;;;2.35;1.42;;;;;;;39.55;19.81;95448.53;6280046;22;20094;-81
2023/09/21 10:01:41;;;;;;;1.80;1.35;;;;;;;39.01;22.27;95450.72;6280024;22;20027;-72
2023/09/21 10:04:09;;;;;;;2.70;1.08;;;;;;;38.83;22.66;95446.06;6275522;22;20020;-72
2023/09/21 10:06:41;;;;;;;1.40;0.85;;;;;;;38.38;23.05;95453.16;6274502;22;20019;-71
2023/09/21 10:09:11;;;;;;;2.28;1.58;;;;;;;37.64;23.40;95450.75;6275012;22;20024;-73
2023/09/21 10:11:42;;;;;;;2.10;1.03;;;;;;;36.91;23.51;95437.22;6274797;22;20024;-72
2023/09/21 10:14:11;;;;;;;2.15;1.10;;;;;;;36.55;25.03;95434.28;6275197;22;20028;-70
2023/09/21 10:16:39;;;;;;;3.75;1.40;;;;;;;36.37;24.29;95431.47;6274924;22;20020;-71
2023/09/21 10:19:16;;;;;;;1.50;1.10;;;;;;;36.33;24.95;95430.66;6274357;22;20030;-74
2023/09/21 10:21:45;;;;;;;1.95;1.02;;;;;;;36.54;24.29;95434.66;6274523;22;20019;-74
2023/09/21 10:24:18;;;;;;;4.15;1.25;;;;;;;36.60;24.89;95416.84;6274371;22;20023;-74
2023/09/21 10:26:50;;;;;;;3.80;1.40;;;;;;;36.26;24.21;95414.31;6275045;22;20019;-83
2023/09/21 10:29:20;;;;;;;2.35;1.20;;;;;;;36.12;24.34;95411.47;6280148;22;20016;-81
2023/09/21 10:31:54;;;;;;;4.43;1.33;;;;;;;36.10;23.43;95401.78;6280393;22;20020;-81
2023/09/21 10:34:25;;;;;;;2.88;1.30;;;;;;;36.26;22.75;95406.19;6280083;22;20523;-83
2023/09/21 10:37:05;;;;;;;3.13;1.25;;;;;;;36.34;22.24;95399.63;6280396;22;20091;-82
2023/09/21 10:39:33;;;;;;;1.10;0.98;;;;;;;36.49;23.94;95390.41;6281294;22;20031;-81
2023/09/21 10:42:34;;;;;;;3.88;1.40;;;;;;;36.47;23.81;95381.88;6280623;22;20390;-79
2023/09/21 10:45:04;;;;;;;1.30;1.02;;;;;;;36.45;23.87;95389.63;6290142;22;20023;-79
2023/09/21 10:47:39;;;;;;;2.03;0.80;;;;;;;36.26;21.59;95384.47;6290772;22;20015;-76
2023/09/21 10:50:11;;;;;;;7.20;1.15;;;;;;;35.99;24.62;95378.41;6276123;22;20098;-77
2023/09/21 10:52:42;;;;;;;2.10;0.98;;;;;;;35.68;21.91;95380.47;6274379;22;20030;-77
2023/09/21 10:55:12;;;;;;;2.70;1.50;;;;;;;35.27;22.32;95381.25;6275497;22;20353;-75
2023/09/21 10:57:40;;;;;;;1.88;1.40;;;;;;;34.91;24.08;95373.84;6274931;22;20354;-76
2023/09/21 11:00:15;;;;;;;1.17;0.75;;;;;;;34.74;22.43;95372.47;6275831;22;20024;-83
2023/09/21 11:02:46;;;;;;;1.67;0.73;;;;;;;34.63;21.72;95359.56;6286041;22;20030;-83
2023/09/21 11:05:16;;;;;;;5.82;0.88;;;;;;;34.41;22.11;95350.34;6281731;22;20072;-83
2023/09/21 11:07:47;;;;;;;4.75;0.93;;;;;;;34.00;22.42;95346.66;6284613;22;20028;-84
2023/09/21 11:10:16;;;;;;;5.78;1.42;;;;;;;33.47;23.53;95346.53;6282931;22;20069;-84
2023/09/21 11:12:45;;;;;;;3.65;1.00;;;;;;;33.14;24.20;95343.28;6282803;22;20361;-81
2023/09/21 11:15:16;;;;;;;4.35;1.15;;;;;;;33.10;24.05;95334.31;6282101;22;20038;-81
2023/09/21 11:17:46;;;;;;;3.85;1.00;;;;;;;33.23;25.16;95332.22;6281869;22;20528;-82
2023/09/21 11:20:19;;;;;;;3.72;1.52;;;;;;;33.68;25.24;95325.31;6283607;22;20024;-81
2023/09/21 11:22:50;;;;;;;5.97;1.77;;;;;;;34.41;25.13;95311.69;6282783;22;20016;-80
2023/09/21 11:25:21;;;;;;;2.22;1.33;;;;;;;35.38;24.05;95324.41;6282189;22;20027;-81
2023/09/21 11:27:50;;;;;;;5.93;1.45;;;;;;;36.25;23.32;95312.28;6281633;22;20022;-81
2023/09/21 11:30:18;;;;;;;2.92;1.00;;;;;;;36.83;22.83;95311.41;6283283;22;20330;-81
2023/09/21 11:32:48;;;;;;;1.77;1.08;;;;;;;37.28;22.60;95314.66;6282740;22;20019;-81
2023/09/21 11:35:17;;;;;;;2.38;0.90;;;;;;;37.74;22.41;95299.53;6280741;22;20024;-81
2023/09/21 11:37:47;;;;;;;1.75;0.82;;;;;;;38.15;21.40;95299.09;6281843;22;20050;-85
2023/09/21 11:40:21;;;;;;;3.30;0.80;;;;;;;38.46;20.67;95297.44;6282088;22;20087;-83
2023/09/21 11:42:51;;;;;;;1.70;1.20;;;;;;;38.54;21.02;95299.00;6282480;22;20311;-84
2023/09/21 11:45:21;;;;;;;1.50;1.02;;;;;;;38.51;20.42;95288.91;6280603;22;20023;-82
2023/09/21 11:47:51;;;;;;;2.28;1.10;;;;;;;38.50;20.59;95283.84;6280684;22;20019;-83
2023/09/21 11:50:20;;;;;;;3.15;1.08;;;;;;;38.50;20.41;95281.13;6281205;22;20070;-83
2023/09/21 11:52:54;;;;;;;3.33;0.90;;;;;;;38.18;21.01;95286.66;6284467;22;20042;-84
2023/09/21 11:55:28;;;;;;;1.13;0.70;;;;;;;37.53;20.57;95278.53;6285143;22;20019;-83
2023/09/21 11:58:07;;;;;;;0.95;0.70;;;;;;;36.89;21.20;95277.28;6284376;22;20011;-83
2023/09/21 12:00:43;;;;;;;1.48;0.60;;;;;;;36.31;21.88;95272.78;6282940;22;20024;-83
2023/09/21 12:03:18;;;;;;;1.38;0.73;;;;;;;35.78;22.58;95259.66;6282274;22;20099;-83
2023/09/21 12:05:46;;;;;;;2.03;0.93;;;;;;;35.36;23.55;95260.84;6282255;22;20019;-83
2023/09/21 12:08:15;;;;;;;2.22;0.93;;;;;;;34.90;23.82;95258.47;6282173;22;20051;-82
2023/09/21 12:10:45;;;;;;;2.08;0.50;;;;;;;34.39;24.81;95260.59;6281798;22;20045;-83
2023/09/21 12:13:13;;;;;;;1.83;0.75;;;;;;;33.97;24.80;95245.34;6282959;22;20020;-83
2023/09/21 12:15:41;;;;;;;1.90;0.77;;;;;;;33.68;25.84;95243.41;6283670;22;20564;-84
2023/09/21 12:18:10;;;;;;;1.52;0.68;;;;;;;33.42;25.38;95229.47;6282981;22;20405;-83
2023/09/21 12:20:44;;;;;;;3.33;0.80;;;;;;;33.13;25.98;95230.94;6282053;22;20011;-83
2023/09/21 12:23:12;;;;;;;1.48;0.63;;;;;;;32.81;26.85;95230.34;6282380;22;20016;-82
2023/09/21 12:25:45;;;;;;;2.10;0.90;;;;;;;32.60;26.99;95233.44;6294519;22;20059;-87
2023/09/21 12:28:19;;;;;;;1.27;0.63;;;;;;;32.48;27.96;95225.47;6285903;22;20085;-84
2023/09/21 12:30:51;;;;;;;2.33;1.02;;;;;;;32.38;27.62;95222.22;6279715;22;20027;-85
2023/09/21 12:33:23;;;;;;;1.35;0.75;;;;;;;32.28;27.96;95219.31;6281650;22;20027;-83
2023/09/21 12:35:54;;;;;;;1.95;0.77;;;;;;;32.19;28.21;95211.44;6281221;22;20027;-84
2023/09/21 12:38:22;;;;;;;2.03;1.00;;;;;;;32.03;27.79;95211.47;6281676;22;20467;-83
2023/09/21 12:40:52;;;;;;;0.93;0.73;;;;;;;31.86;27.73;95219.94;6281086;22;20069;-83
2023/09/21 12:43:20;;;;;;;2.55;0.98;;;;;;;31.69;28.97;95199.56;6283039;22;20016;-83
2023/09/21 12:45:49;;;;;;;1.02;0.75;;;;;;;31.57;29.17;95198.53;6281803;22;20023;-84
2023/09/21 12:48:17;;;;;;;2.47;0.70;;;;;;;31.50;28.72;95192.97;6280785;22;20471;-84
2023/09/21 12:50:45;;;;;;;3.85;1.23;;;;;;;31.41;29.38;95195.06;6282758;22;20016;-83
2023/09/21 12:53:13;;;;;;;3.13;0.85;;;;;;;31.29;29.64;95192.47;6281038;22;20018;-83
2023/09/21 12:55:41;;;;;;;1.02;0.60;;;;;;;31.10;28.96;95183.19;6282622;22;20419;-85
2023/09/21 12:58:11;;;;;;;1.92;0.80;;;;;;;30.93;29.25;95188.91;6282113;22;20400;-83
2023/09/21 13:00:40;;;;;;;0.82;0.63;;;;;;;30.77;29.91;95173.50;6281408;22;20016;-82
2023/09/21 13:03:09;;;;;;;1.52;0.80;;;;;;;30.64;29.54;95174.72;6281795;22;20020;-84
2023/09/21 13:05:40;;;;;;;1.95;0.77;;;;;;;30.49;30.08;95172.78;6280340;22;20024;-77
2023/09/21 13:08:08;;;;;;;0.93;0.80;;;;;;;30.37;33.55;95166.34;6276545;22;20016;-75